sensor_id;sensor_type;location;lat;lon;timestamp;P1;durP1;ratioP1;P2;durP2;ratioP2
67164;SDS011;54093;50.014;19.984;2022-09-03T00:04:30;1.75;;;1.63;;
67164;SDS011;54093;50.014;19.984;2022-09-03T00:14:02;1.75;;;1.65;;
67164;SDS011;54093;50.014;19.984;2022-09-03T00:23:27;1.95;;;1.77;;
67164;SDS011;54093;50.014;19.984;2022-09-03T00:32:58;1.60;;;1.50;;
67164;SDS011;54093;50.014;19.984;2022-09-03T00:52:34;4.30;;;1.60;;
67164;SDS011;54093;50.014;19.984;2022-09-03T01:02:25;3.78;;;2.20;;
67164;SDS011;54093;50.014;19.984;2022-09-03T01:12:05;1.70;;;1.60;;
67164;SDS011;54093;50.014;19.984;2022-09-03T01:41:17;2.08;;;1.55;;
67164;SDS011;54093;50.014;19.984;2022-09-03T01:51:23;2.22;;;1.90;;
67164;SDS011;54093;50.014;19.984;2022-09-03T02:00:51;1.83;;;1.73;;
67164;SDS011;54093;50.014;19.984;2022-09-03T02:10:18;2.25;;;1.50;;
67164;SDS011;54093;50.014;19.984;2022-09-03T02:19:41;4.13;;;1.65;;
67164;SDS011;54093;50.014;19.984;2022-09-03T02:29:02;1.75;;;1.65;;
67164;SDS011;54093;50.014;19.984;2022-09-03T02:38:24;1.60;;;1.50;;
67164;SDS011;54093;50.014;19.984;2022-09-03T02:47:45;2.85;;;1.77;;
67164;SDS011;54093;50.014;19.984;2022-09-03T02:57:12;5.80;;;1.80;;
67164;SDS011;54093;50.014;19.984;2022-09-03T03:06:34;2.88;;;2.00;;
67164;SDS011;54093;50.014;19.984;2022-09-03T03:16:02;2.08;;;1.90;;
67164;SDS011;54093;50.014;19.984;2022-09-03T03:25:25;2.55;;;1.98;;
67164;SDS011;54093;50.014;19.984;2022-09-03T03:34:46;3.03;;;1.83;;
67164;SDS011;54093;50.014;19.984;2022-09-03T03:44:07;1.90;;;1.73;;
67164;SDS011;54093;50.014;19.984;2022-09-03T03:53:28;1.85;;;1.75;;
67164;SDS011;54093;50.014;19.984;2022-09-03T04:02:49;4.50;;;2.17;;
67164;SDS011;54093;50.014;19.984;2022-09-03T04:12:10;2.10;;;2.00;;
67164;SDS011;54093;50.014;19.984;2022-09-03T04:21:30;2.08;;;1.98;;
67164;SDS011;54093;50.014;19.984;2022-09-03T04:30:51;1.70;;;1.60;;
67164;SDS011;54093;50.014;19.984;2022-09-03T04:40:12;1.90;;;1.80;;
67164;SDS011;54093;50.014;19.984;2022-09-03T04:49:33;2.42;;;2.10;;
67164;SDS011;54093;50.014;19.984;2022-09-03T04:58:55;1.75;;;1.65;;
67164;SDS011;54093;50.014;19.984;2022-09-03T05:08:17;2.80;;;2.60;;
67164;SDS011;54093;50.014;19.984;2022-09-03T05:17:38;6.05;;;2.40;;
67164;SDS011;54093;50.014;19.984;2022-09-03T05:26:59;2.67;;;2.47;;
67164;SDS011;54093;50.014;19.984;2022-09-03T05:36:21;2.60;;;2.40;;
67164;SDS011;54093;50.014;19.984;2022-09-03T05:45:43;2.40;;;2.25;;
67164;SDS011;54093;50.014;19.984;2022-09-03T05:55:04;10.52;;;2.10;;
67164;SDS011;54093;50.014;19.984;2022-09-03T06:04:25;2.67;;;2.47;;
67164;SDS011;54093;50.014;19.984;2022-09-03T06:13:45;4.80;;;2.47;;
67164;SDS011;54093;50.014;19.984;2022-09-03T06:23:06;2.28;;;2.08;;
67164;SDS011;54093;50.014;19.984;2022-09-03T06:32:27;3.60;;;2.17;;
67164;SDS011;54093;50.014;19.984;2022-09-03T06:41:49;2.72;;;2.53;;
67164;SDS011;54093;50.014;19.984;2022-09-03T06:51:15;3.00;;;2.20;;
67164;SDS011;54093;50.014;19.984;2022-09-03T07:00:41;2.78;;;2.50;;
67164;SDS011;54093;50.014;19.984;2022-09-03T07:10:02;5.93;;;2.58;;
67164;SDS011;54093;50.014;19.984;2022-09-03T07:19:23;2.50;;;2.30;;
67164;SDS011;54093;50.014;19.984;2022-09-03T07:28:44;2.33;;;2.22;;
67164;SDS011;54093;50.014;19.984;2022-09-03T07:38:05;2.63;;;2.42;;
67164;SDS011;54093;50.014;19.984;2022-09-03T07:47:27;2.53;;;2.33;;
67164;SDS011;54093;50.014;19.984;2022-09-03T07:56:48;2.47;;;2.10;;
67164;SDS011;54093;50.014;19.984;2022-09-03T08:06:10;2.33;;;2.13;;
67164;SDS011;54093;50.014;19.984;2022-09-03T08:15:32;3.53;;;2.03;;
67164;SDS011;54093;50.014;19.984;2022-09-03T08:24:53;1.85;;;1.75;;
67164;SDS011;54093;50.014;19.984;2022-09-03T08:34:15;1.90;;;1.80;;
67164;SDS011;54093;50.014;19.984;2022-09-03T08:53:24;1.90;;;1.80;;
67164;SDS011;54093;50.014;19.984;2022-09-03T09:03:17;1.73;;;1.63;;
67164;SDS011;54093;50.014;19.984;2022-09-03T09:31:56;2.85;;;2.20;;
67164;SDS011;54093;50.014;19.984;2022-09-03T09:41:17;2.58;;;2.47;;
67164;SDS011;54093;50.014;19.984;2022-09-03T09:50:40;3.00;;;2.30;;
67164;SDS011;54093;50.014;19.984;2022-09-03T10:00:22;2.58;;;2.38;;
67164;SDS011;54093;50.014;19.984;2022-09-03T10:09:42;2.40;;;2.28;;
67164;SDS011;54093;50.014;19.984;2022-09-03T10:19:15;2.63;;;2.50;;
67164;SDS011;54093;50.014;19.984;2022-09-03T10:28:38;2.50;;;2.38;;
67164;SDS011;54093;50.014;19.984;2022-09-03T10:47:28;2.40;;;2.20;;
67164;SDS011;54093;50.014;19.984;2022-09-03T11:06:42;3.03;;;2.60;;
67164;SDS011;54093;50.014;19.984;2022-09-03T11:16:07;2.20;;;2.10;;
67164;SDS011;54093;50.014;19.984;2022-09-03T11:25:36;2.78;;;2.58;;
67164;SDS011;54093;50.014;19.984;2022-09-03T11:35:11;4.85;;;2.60;;
67164;SDS011;54093;50.014;19.984;2022-09-03T11:44:38;2.78;;;2.58;;
67164;SDS011;54093;50.014;19.984;2022-09-03T12:04:08;2.33;;;2.13;;
67164;SDS011;54093;50.014;19.984;2022-09-03T12:22:40;2.00;;;1.90;;
67164;SDS011;54093;50.014;19.984;2022-09-03T12:32:05;2.35;;;2.25;;
67164;SDS011;54093;50.014;19.984;2022-09-03T12:41:29;2.40;;;2.25;;
67164;SDS011;54093;50.014;19.984;2022-09-03T12:51:00;2.20;;;2.10;;
67164;SDS011;54093;50.014;19.984;2022-09-03T13:00:22;3.47;;;2.10;;
67164;SDS011;54093;50.014;19.984;2022-09-03T13:09:43;2.05;;;1.95;;
67164;SDS011;54093;50.014;19.984;2022-09-03T13:38:38;3.33;;;3.13;;
67164;SDS011;54093;50.014;19.984;2022-09-03T13:48:16;2.53;;;2.33;;
67164;SDS011;54093;50.014;19.984;2022-09-03T13:58:03;4.05;;;2.60;;
67164;SDS011;54093;50.014;19.984;2022-09-03T14:07:41;2.80;;;2.25;;
67164;SDS011;54093;50.014;19.984;2022-09-03T14:27:01;2.67;;;2.50;;
67164;SDS011;54093;50.014;19.984;2022-09-03T15:15:04;4.43;;;4.03;;
67164;SDS011;54093;50.014;19.984;2022-09-03T15:34:34;3.13;;;2.92;;
67164;SDS011;54093;50.014;19.984;2022-09-03T15:44:17;3.00;;;2.80;;
67164;SDS011;54093;50.014;19.984;2022-09-03T16:03:12;6.00;;;4.70;;
67164;SDS011;54093;50.014;19.984;2022-09-03T16:22:19;3.35;;;3.15;;
67164;SDS011;54093;50.014;19.984;2022-09-03T16:41:29;2.58;;;2.38;;
67164;SDS011;54093;50.014;19.984;2022-09-03T16:51:32;4.32;;;2.70;;
67164;SDS011;54093;50.014;19.984;2022-09-03T17:11:35;3.45;;;2.88;;
67164;SDS011;54093;50.014;19.984;2022-09-03T17:49:59;3.95;;;3.60;;
67164;SDS011;54093;50.014;19.984;2022-09-03T18:09:02;7.28;;;3.55;;
67164;SDS011;54093;50.014;19.984;2022-09-03T18:18:27;5.82;;;3.67;;
67164;SDS011;54093;50.014;19.984;2022-09-03T18:27:50;5.15;;;4.30;;
67164;SDS011;54093;50.014;19.984;2022-09-03T18:57:25;6.70;;;6.03;;
67164;SDS011;54093;50.014;19.984;2022-09-03T19:07:39;6.82;;;5.35;;
67164;SDS011;54093;50.014;19.984;2022-09-03T19:17:23;6.20;;;5.60;;
67164;SDS011;54093;50.014;19.984;2022-09-03T19:47:35;9.98;;;5.25;;
67164;SDS011;54093;50.014;19.984;2022-09-03T19:57:23;7.88;;;7.15;;
67164;SDS011;54093;50.014;19.984;2022-09-03T20:07:04;9.25;;;6.63;;
67164;SDS011;54093;50.014;19.984;2022-09-03T20:36:20;5.50;;;4.82;;
67164;SDS011;54093;50.014;19.984;2022-09-03T20:45:59;7.47;;;4.10;;
67164;SDS011;54093;50.014;19.984;2022-09-03T20:55:38;4.72;;;4.32;;
67164;SDS011;54093;50.014;19.984;2022-09-03T21:15:15;8.38;;;6.53;;
67164;SDS011;54093;50.014;19.984;2022-09-03T21:25:00;7.47;;;5.67;;
67164;SDS011;54093;50.014;19.984;2022-09-03T21:44:15;6.82;;;5.93;;
67164;SDS011;54093;50.014;19.984;2022-09-03T21:54:04;9.50;;;6.15;;
67164;SDS011;54093;50.014;19.984;2022-09-03T22:03:33;6.50;;;5.88;;
67164;SDS011;54093;50.014;19.984;2022-09-03T22:22:41;6.25;;;5.70;;
67164;SDS011;54093;50.014;19.984;2022-09-03T23:01:21;6.47;;;5.25;;
67164;SDS011;54093;50.014;19.984;2022-09-03T23:11:00;5.20;;;4.80;;
67164;SDS011;54093;50.014;19.984;2022-09-03T23:20:26;5.13;;;4.47;;
67164;SDS011;54093;50.014;19.984;2022-09-03T23:29:50;6.32;;;5.80;;
67164;SDS011;54093;50.014;19.984;2022-09-03T23:49:04;4.38;;;4.07;;
